CEB250 RPMR-RPVM
Flight info
| Callsign | CEB250 |
|---|---|
| Flight time | 0h 47m |
| Altitude | 26000 |
| Route | LATIA4R LATIA W6 LUMVI DCT BOLOB BOLOB3P |
| Aircraft | A21N/M-SDE3FGHIRWY/LB1 |
Departure
| Time | 2026-04-21 12:52 |
|---|---|
| Airport | General Santos International Airport (RPMR) |
Arrival
| Time | 2026-04-21 13:39 |
|---|---|
| Airport | Mactan Cebu International Airport (RPVM) |
| Time | Latitude | Longitude | Altitude | Speed | Heading |
|---|---|---|---|---|---|
| 2026-04-21 12:32 | 6.05776 | 125.09957 | 533 ft | 0 kts | 83° |
| 2026-04-21 12:40 | 6.05776 | 125.09956 | 533 ft | 0 kts | 83° |
| 2026-04-21 12:40 | 6.05774 | 125.09943 | 533 ft | 2 kts | 83° |
| 2026-04-21 12:41 | 6.05773 | 125.09928 | 533 ft | 2 kts | 83° |
| 2026-04-21 12:41 | 6.05771 | 125.09913 | 533 ft | 2 kts | 83° |
| 2026-04-21 12:41 | 6.05770 | 125.09902 | 533 ft | 0 kts | 83° |
| 2026-04-21 12:41 | 6.05766 | 125.09888 | 533 ft | 2 kts | 54° |
| 2026-04-21 12:42 | 6.05755 | 125.09878 | 533 ft | 2 kts | 26° |
| 2026-04-21 12:42 | 6.05741 | 125.09875 | 533 ft | 1 kts | 358° |
| 2026-04-21 12:42 | 6.05735 | 125.09875 | 533 ft | 1 kts | 351° |
| 2026-04-21 12:42 | 6.05732 | 125.09875 | 533 ft | 0 kts | 352° |
| 2026-04-21 12:45 | 6.05739 | 125.09875 | 533 ft | 2 kts | 352° |
| 2026-04-21 12:45 | 6.05753 | 125.09873 | 533 ft | 3 kts | 353° |
| 2026-04-21 12:46 | 6.05783 | 125.09869 | 533 ft | 5 kts | 354° |
| 2026-04-21 12:46 | 6.05829 | 125.09862 | 533 ft | 7 kts | 334° |
| 2026-04-21 12:46 | 6.05839 | 125.09811 | 533 ft | 9 kts | 264° |
| 2026-04-21 12:46 | 6.05830 | 125.09740 | 534 ft | 10 kts | 262° |
| 2026-04-21 12:47 | 6.05822 | 125.09664 | 534 ft | 11 kts | 265° |
| 2026-04-21 12:47 | 6.05867 | 125.09611 | 534 ft | 11 kts | 351° |
| 2026-04-21 12:47 | 6.05950 | 125.09600 | 534 ft | 12 kts | 353° |
| 2026-04-21 12:47 | 6.06050 | 125.09589 | 534 ft | 16 kts | 353° |
| 2026-04-21 12:48 | 6.06181 | 125.09573 | 534 ft | 20 kts | 352° |
| 2026-04-21 12:48 | 6.06331 | 125.09554 | 534 ft | 23 kts | 353° |
| 2026-04-21 12:48 | 6.06489 | 125.09534 | 534 ft | 22 kts | 353° |
| 2026-04-21 12:48 | 6.06641 | 125.09516 | 534 ft | 21 kts | 353° |
| 2026-04-21 12:49 | 6.06784 | 125.09499 | 534 ft | 19 kts | 353° |
| 2026-04-21 12:49 | 6.06909 | 125.09483 | 534 ft | 17 kts | 353° |
| 2026-04-21 12:49 | 6.07028 | 125.09470 | 534 ft | 16 kts | 352° |
| 2026-04-21 12:49 | 6.07136 | 125.09448 | 534 ft | 15 kts | 348° |
| 2026-04-21 12:50 | 6.07203 | 125.09447 | 534 ft | 8 kts | 25° |
| 2026-04-21 12:50 | 6.07242 | 125.09457 | 534 ft | 4 kts | 305° |
| 2026-04-21 12:50 | 6.07228 | 125.09443 | 534 ft | 0 kts | 172° |
| 2026-04-21 12:51 | 6.07210 | 125.09445 | 534 ft | 19 kts | 172° |
| 2026-04-21 12:51 | 6.06784 | 125.09499 | 534 ft | 99 kts | 173° |
| 2026-04-21 12:51 | 6.05873 | 125.09610 | 535 ft | 162 kts | 173° |
| 2026-04-21 12:51 | 6.04659 | 125.09749 | 904 ft | 179 kts | 172° |
| 2026-04-21 12:52 | 6.03421 | 125.09894 | 1573 ft | 182 kts | 171° |
| 2026-04-21 12:52 | 6.02595 | 125.09996 | 2081 ft | 181 kts | 171° |
| 2026-04-21 12:52 | 6.01343 | 125.10152 | 2612 ft | 182 kts | 170° |
| 2026-04-21 12:52 | 5.99582 | 125.10375 | 2971 ft | 200 kts | 170° |
| 2026-04-21 12:53 | 5.98132 | 125.10558 | 3219 ft | 217 kts | 170° |
| 2026-04-21 12:53 | 5.97117 | 125.10725 | 3399 ft | 226 kts | 163° |
| 2026-04-21 12:53 | 5.95432 | 125.12026 | 3693 ft | 244 kts | 116° |
| 2026-04-21 12:53 | 5.95017 | 125.13695 | 4002 ft | 257 kts | 85° |
| 2026-04-21 12:54 | 5.95610 | 125.15402 | 4480 ft | 264 kts | 52° |
| 2026-04-21 12:54 | 5.97044 | 125.16499 | 5152 ft | 265 kts | 20° |
| 2026-04-21 12:54 | 5.98868 | 125.16743 | 5883 ft | 266 kts | 3° |
| 2026-04-21 12:54 | 6.00726 | 125.16847 | 6566 ft | 268 kts | 6° |
| 2026-04-21 12:55 | 6.02621 | 125.17005 | 7204 ft | 272 kts | 6° |
| 2026-04-21 12:55 | 6.04516 | 125.17168 | 7808 ft | 276 kts | 6° |
| 2026-04-21 12:55 | 6.06449 | 125.17329 | 8386 ft | 281 kts | 5° |
| 2026-04-21 12:55 | 6.08402 | 125.17415 | 8928 ft | 286 kts | 357° |
| 2026-04-21 12:56 | 6.10395 | 125.17091 | 9466 ft | 291 kts | 346° |
| 2026-04-21 12:56 | 6.12365 | 125.16502 | 9996 ft | 296 kts | 343° |
| 2026-04-21 12:56 | 6.14351 | 125.15859 | 10440 ft | 303 kts | 342° |
| 2026-04-21 12:56 | 6.16402 | 125.15200 | 10682 ft | 318 kts | 342° |
| 2026-04-21 12:57 | 6.18572 | 125.14516 | 10927 ft | 331 kts | 342° |
| 2026-04-21 12:57 | 6.20840 | 125.13807 | 11157 ft | 345 kts | 343° |
| 2026-04-21 12:57 | 6.23175 | 125.13079 | 11378 ft | 358 kts | 343° |
| 2026-04-21 12:57 | 6.25586 | 125.12330 | 11688 ft | 366 kts | 342° |
| 2026-04-21 12:58 | 6.28054 | 125.11564 | 12167 ft | 370 kts | 342° |
| 2026-04-21 12:58 | 6.30523 | 125.10796 | 12639 ft | 373 kts | 342° |
| 2026-04-21 12:58 | 6.33025 | 125.10017 | 13100 ft | 375 kts | 342° |
| 2026-04-21 12:58 | 6.35542 | 125.09235 | 13538 ft | 379 kts | 342° |
| 2026-04-21 12:59 | 6.38047 | 125.08456 | 13966 ft | 381 kts | 342° |
| 2026-04-21 12:59 | 6.40603 | 125.07661 | 14387 ft | 384 kts | 342° |
| 2026-04-21 12:59 | 6.43196 | 125.06856 | 14799 ft | 387 kts | 342° |
| 2026-04-21 12:59 | 6.45784 | 125.06051 | 15204 ft | 389 kts | 342° |
| 2026-04-21 13:00 | 6.48352 | 125.05252 | 15605 ft | 391 kts | 342° |
| 2026-04-21 13:00 | 6.50999 | 125.04428 | 15994 ft | 393 kts | 342° |
| 2026-04-21 13:00 | 6.53606 | 125.03617 | 16359 ft | 396 kts | 342° |
| 2026-04-21 13:00 | 6.56275 | 125.02786 | 16719 ft | 398 kts | 342° |
| 2026-04-21 13:01 | 6.58912 | 125.01965 | 17081 ft | 400 kts | 342° |
| 2026-04-21 13:01 | 6.61593 | 125.01131 | 17416 ft | 402 kts | 342° |
| 2026-04-21 13:01 | 6.64281 | 125.00294 | 17736 ft | 405 kts | 342° |
| 2026-04-21 13:01 | 6.66991 | 124.99451 | 18085 ft | 406 kts | 342° |
| 2026-04-21 13:02 | 6.69707 | 124.98605 | 18433 ft | 408 kts | 343° |
| 2026-04-21 13:02 | 6.72441 | 124.97754 | 18767 ft | 410 kts | 343° |
| 2026-04-21 13:02 | 6.77925 | 124.96046 | 19423 ft | 413 kts | 343° |
| 2026-04-21 13:03 | 6.80664 | 124.95193 | 19746 ft | 414 kts | 343° |
| 2026-04-21 13:03 | 6.83436 | 124.94330 | 20071 ft | 416 kts | 343° |
| 2026-04-21 13:03 | 6.86230 | 124.93460 | 20393 ft | 417 kts | 343° |
| 2026-04-21 13:03 | 6.89020 | 124.92599 | 20697 ft | 418 kts | 345° |
| 2026-04-21 13:04 | 6.91863 | 124.91859 | 20995 ft | 419 kts | 348° |
| 2026-04-21 13:04 | 6.94719 | 124.91249 | 21288 ft | 420 kts | 349° |
| 2026-04-21 13:04 | 6.97583 | 124.90659 | 21570 ft | 422 kts | 350° |
| 2026-04-21 13:04 | 7.00483 | 124.90066 | 21849 ft | 423 kts | 350° |
| 2026-04-21 13:05 | 7.03395 | 124.89468 | 22124 ft | 425 kts | 350° |
| 2026-04-21 13:05 | 7.06316 | 124.88867 | 22397 ft | 426 kts | 350° |
| 2026-04-21 13:05 | 7.09218 | 124.88270 | 22652 ft | 428 kts | 350° |
| 2026-04-21 13:05 | 7.12179 | 124.87661 | 22903 ft | 430 kts | 350° |
| 2026-04-21 13:06 | 7.15148 | 124.87048 | 23155 ft | 432 kts | 350° |
| 2026-04-21 13:06 | 7.18095 | 124.86439 | 23400 ft | 433 kts | 350° |
| 2026-04-21 13:06 | 7.21064 | 124.85825 | 23639 ft | 435 kts | 350° |
| 2026-04-21 13:06 | 7.24050 | 124.85207 | 23881 ft | 437 kts | 350° |
| 2026-04-21 13:07 | 7.27087 | 124.84581 | 24126 ft | 439 kts | 350° |
| 2026-04-21 13:07 | 7.30065 | 124.83968 | 24359 ft | 441 kts | 349° |
| 2026-04-21 13:07 | 7.33084 | 124.83347 | 24593 ft | 442 kts | 350° |
| 2026-04-21 13:07 | 7.36142 | 124.82717 | 24821 ft | 444 kts | 349° |
| 2026-04-21 13:08 | 7.38130 | 124.82308 | 24969 ft | 445 kts | 349° |
| 2026-04-21 13:08 | 7.42206 | 124.81468 | 25263 ft | 448 kts | 349° |
| 2026-04-21 13:08 | 7.45287 | 124.80833 | 25481 ft | 449 kts | 349° |
| 2026-04-21 13:08 | 7.48395 | 124.80191 | 25700 ft | 451 kts | 349° |
| 2026-04-21 13:09 | 7.51492 | 124.79552 | 25913 ft | 453 kts | 349° |
| 2026-04-21 13:09 | 7.54601 | 124.78910 | 25973 ft | 457 kts | 349° |
| 2026-04-21 13:09 | 7.57751 | 124.78260 | 25978 ft | 464 kts | 349° |
| 2026-04-21 13:09 | 7.60929 | 124.77603 | 25979 ft | 470 kts | 349° |
| 2026-04-21 13:10 | 7.64159 | 124.76936 | 25983 ft | 476 kts | 349° |
| 2026-04-21 13:10 | 7.67432 | 124.76260 | 25981 ft | 481 kts | 349° |
| 2026-04-21 13:10 | 7.70733 | 124.75577 | 25985 ft | 486 kts | 349° |
| 2026-04-21 13:10 | 7.74087 | 124.74884 | 25989 ft | 490 kts | 349° |
| 2026-04-21 13:11 | 7.77420 | 124.74197 | 25995 ft | 494 kts | 349° |
| 2026-04-21 13:11 | 7.80834 | 124.73490 | 26012 ft | 497 kts | 349° |
| 2026-04-21 13:11 | 7.84245 | 124.72784 | 26028 ft | 500 kts | 349° |
| 2026-04-21 13:11 | 7.87678 | 124.72073 | 26043 ft | 502 kts | 349° |
| 2026-04-21 13:12 | 7.91121 | 124.71360 | 26063 ft | 504 kts | 349° |
| 2026-04-21 13:12 | 7.94568 | 124.70647 | 26080 ft | 506 kts | 349° |
| 2026-04-21 13:12 | 7.98029 | 124.69931 | 26098 ft | 506 kts | 349° |
| 2026-04-21 13:12 | 8.01516 | 124.69211 | 26112 ft | 507 kts | 349° |
| 2026-04-21 13:13 | 8.04975 | 124.68497 | 26109 ft | 507 kts | 349° |
| 2026-04-21 13:13 | 8.08443 | 124.67782 | 26097 ft | 507 kts | 349° |
| 2026-04-21 13:13 | 8.11900 | 124.67069 | 26082 ft | 507 kts | 349° |
| 2026-04-21 13:13 | 8.15394 | 124.66347 | 26064 ft | 507 kts | 349° |
| 2026-04-21 13:14 | 8.18850 | 124.65632 | 26047 ft | 507 kts | 349° |
| 2026-04-21 13:14 | 8.22323 | 124.64913 | 26037 ft | 506 kts | 349° |
| 2026-04-21 13:14 | 8.25787 | 124.64196 | 26028 ft | 506 kts | 349° |
| 2026-04-21 13:14 | 8.29257 | 124.63477 | 26017 ft | 506 kts | 349° |
| 2026-04-21 13:15 | 8.32740 | 124.62756 | 26002 ft | 506 kts | 349° |
| 2026-04-21 13:15 | 8.36180 | 124.62040 | 25991 ft | 506 kts | 348° |
| 2026-04-21 13:15 | 8.39593 | 124.61147 | 25980 ft | 507 kts | 344° |
| 2026-04-21 13:15 | 8.42975 | 124.59962 | 25962 ft | 507 kts | 339° |
| 2026-04-21 13:16 | 8.46196 | 124.58522 | 25951 ft | 508 kts | 334° |
| 2026-04-21 13:16 | 8.49348 | 124.56904 | 25941 ft | 501 kts | 333° |
| 2026-04-21 13:16 | 8.52381 | 124.55298 | 25934 ft | 481 kts | 333° |
| 2026-04-21 13:16 | 8.55291 | 124.53746 | 25921 ft | 463 kts | 333° |
| 2026-04-21 13:17 | 8.58151 | 124.52221 | 25916 ft | 456 kts | 333° |
| 2026-04-21 13:17 | 8.60938 | 124.50741 | 25911 ft | 456 kts | 333° |
| 2026-04-21 13:17 | 8.63769 | 124.49240 | 25908 ft | 455 kts | 333° |
| 2026-04-21 13:17 | 8.66565 | 124.47760 | 25910 ft | 455 kts | 333° |
| 2026-04-21 13:18 | 8.69390 | 124.46265 | 25903 ft | 456 kts | 333° |
| 2026-04-21 13:18 | 8.72194 | 124.44783 | 25898 ft | 455 kts | 333° |
| 2026-04-21 13:18 | 8.75023 | 124.43287 | 25894 ft | 455 kts | 333° |
| 2026-04-21 13:18 | 8.77848 | 124.41793 | 25891 ft | 454 kts | 333° |
| 2026-04-21 13:19 | 8.80621 | 124.40328 | 25883 ft | 455 kts | 333° |
| 2026-04-21 13:19 | 8.83428 | 124.38844 | 25644 ft | 453 kts | 333° |
| 2026-04-21 13:19 | 8.86234 | 124.37360 | 25399 ft | 451 kts | 333° |
| 2026-04-21 13:19 | 8.89023 | 124.35885 | 25121 ft | 449 kts | 333° |
| 2026-04-21 13:20 | 8.90867 | 124.34909 | 24916 ft | 448 kts | 333° |
| 2026-04-21 13:20 | 8.94512 | 124.32981 | 24430 ft | 444 kts | 333° |
| 2026-04-21 13:20 | 8.97246 | 124.31535 | 23979 ft | 441 kts | 332° |
| 2026-04-21 13:20 | 8.99954 | 124.30101 | 23514 ft | 438 kts | 332° |
| 2026-04-21 13:21 | 9.02650 | 124.28674 | 23034 ft | 434 kts | 333° |
| 2026-04-21 13:21 | 9.05327 | 124.27255 | 22545 ft | 430 kts | 333° |
| 2026-04-21 13:21 | 9.07979 | 124.25849 | 22051 ft | 427 kts | 333° |
| 2026-04-21 13:21 | 9.10609 | 124.24457 | 21565 ft | 424 kts | 332° |
| 2026-04-21 13:22 | 9.13208 | 124.23080 | 21079 ft | 421 kts | 332° |
| 2026-04-21 13:22 | 9.15820 | 124.21697 | 20580 ft | 419 kts | 332° |
| 2026-04-21 13:22 | 9.18400 | 124.20331 | 20084 ft | 416 kts | 332° |
| 2026-04-21 13:22 | 9.20957 | 124.18977 | 19586 ft | 414 kts | 332° |
| 2026-04-21 13:23 | 9.23585 | 124.17755 | 19049 ft | 412 kts | 339° |
| 2026-04-21 13:23 | 9.25389 | 124.17120 | 18703 ft | 411 kts | 341° |
| 2026-04-21 13:23 | 9.29020 | 124.15945 | 18014 ft | 408 kts | 342° |
| 2026-04-21 13:23 | 9.31700 | 124.15068 | 17511 ft | 406 kts | 341° |
| 2026-04-21 13:24 | 9.34381 | 124.14167 | 17005 ft | 404 kts | 340° |
| 2026-04-21 13:24 | 9.36185 | 124.13551 | 16655 ft | 402 kts | 340° |
| 2026-04-21 13:24 | 9.39707 | 124.12332 | 15966 ft | 400 kts | 340° |
| 2026-04-21 13:24 | 9.41451 | 124.11725 | 15625 ft | 399 kts | 340° |
| 2026-04-21 13:25 | 9.44979 | 124.10493 | 14944 ft | 396 kts | 339° |
| 2026-04-21 13:25 | 9.47564 | 124.09590 | 14449 ft | 393 kts | 339° |
| 2026-04-21 13:25 | 9.50130 | 124.08702 | 13955 ft | 391 kts | 340° |
| 2026-04-21 13:25 | 9.52740 | 124.07845 | 13451 ft | 388 kts | 340° |
| 2026-04-21 13:26 | 9.55326 | 124.07008 | 12946 ft | 386 kts | 340° |
| 2026-04-21 13:26 | 9.57868 | 124.06183 | 12451 ft | 384 kts | 340° |
| 2026-04-21 13:26 | 9.60394 | 124.05360 | 11969 ft | 381 kts | 341° |
| 2026-04-21 13:26 | 9.62916 | 124.04539 | 11492 ft | 378 kts | 341° |
| 2026-04-21 13:27 | 9.65419 | 124.03723 | 11013 ft | 375 kts | 341° |
| 2026-04-21 13:27 | 9.67880 | 124.02921 | 10745 ft | 363 kts | 341° |
| 2026-04-21 13:27 | 9.70266 | 124.02144 | 10590 ft | 347 kts | 341° |
| 2026-04-21 13:27 | 9.72512 | 124.01412 | 10430 ft | 331 kts | 341° |
| 2026-04-21 13:28 | 9.74672 | 124.00707 | 10278 ft | 316 kts | 341° |
| 2026-04-21 13:28 | 9.76714 | 124.00039 | 10137 ft | 302 kts | 341° |
| 2026-04-21 13:28 | 9.78686 | 123.99394 | 9975 ft | 291 kts | 342° |
| 2026-04-21 13:28 | 9.80617 | 123.98762 | 9597 ft | 290 kts | 342° |
| 2026-04-21 13:29 | 9.82546 | 123.98129 | 9223 ft | 289 kts | 342° |
| 2026-04-21 13:29 | 9.84459 | 123.97503 | 8861 ft | 289 kts | 342° |
| 2026-04-21 13:29 | 9.86367 | 123.96880 | 8511 ft | 288 kts | 343° |
| 2026-04-21 13:29 | 9.88276 | 123.96255 | 8164 ft | 286 kts | 343° |
| 2026-04-21 13:30 | 9.90191 | 123.95629 | 7821 ft | 285 kts | 343° |
| 2026-04-21 13:30 | 9.92082 | 123.95011 | 7482 ft | 283 kts | 343° |
| 2026-04-21 13:30 | 9.93944 | 123.94402 | 7143 ft | 282 kts | 343° |
| 2026-04-21 13:30 | 9.95806 | 123.93793 | 6803 ft | 280 kts | 344° |
| 2026-04-21 13:31 | 9.97653 | 123.93188 | 6473 ft | 276 kts | 344° |
| 2026-04-21 13:31 | 9.99472 | 123.92592 | 6271 ft | 266 kts | 344° |
| 2026-04-21 13:31 | 10.01197 | 123.92027 | 6086 ft | 257 kts | 345° |
| 2026-04-21 13:31 | 10.02891 | 123.91473 | 5811 ft | 252 kts | 345° |
| 2026-04-21 13:32 | 10.04551 | 123.90929 | 5613 ft | 241 kts | 345° |
| 2026-04-21 13:32 | 10.06125 | 123.90405 | 5345 ft | 235 kts | 342° |
| 2026-04-21 13:32 | 10.07577 | 123.89663 | 4978 ft | 237 kts | 329° |
| 2026-04-21 13:32 | 10.08865 | 123.88580 | 4667 ft | 238 kts | 319° |
| 2026-04-21 13:33 | 10.10031 | 123.87400 | 4325 ft | 240 kts | 318° |
| 2026-04-21 13:33 | 10.11207 | 123.86180 | 3931 ft | 241 kts | 318° |
| 2026-04-21 13:33 | 10.12386 | 123.84962 | 3592 ft | 237 kts | 318° |
| 2026-04-21 13:33 | 10.13536 | 123.83820 | 3496 ft | 229 kts | 326° |
| 2026-04-21 13:34 | 10.14927 | 123.83250 | 3465 ft | 200 kts | 0° |
| 2026-04-21 13:34 | 10.16208 | 123.83491 | 3337 ft | 177 kts | 28° |
| 2026-04-21 13:34 | 10.17144 | 123.84187 | 3191 ft | 159 kts | 46° |
| 2026-04-21 13:34 | 10.17903 | 123.84965 | 3094 ft | 154 kts | 47° |
| 2026-04-21 13:35 | 10.18661 | 123.85750 | 3003 ft | 155 kts | 47° |
| 2026-04-21 13:35 | 10.19408 | 123.86516 | 2913 ft | 150 kts | 47° |
| 2026-04-21 13:35 | 10.20125 | 123.87243 | 2782 ft | 143 kts | 47° |
| 2026-04-21 13:35 | 10.20822 | 123.87949 | 2616 ft | 141 kts | 47° |
| 2026-04-21 13:36 | 10.21514 | 123.88648 | 2354 ft | 139 kts | 46° |
| 2026-04-21 13:36 | 10.22209 | 123.89346 | 2151 ft | 139 kts | 46° |
| 2026-04-21 13:36 | 10.22894 | 123.90035 | 1958 ft | 139 kts | 46° |
| 2026-04-21 13:36 | 10.23586 | 123.90730 | 1767 ft | 138 kts | 46° |
| 2026-04-21 13:37 | 10.24267 | 123.91413 | 1584 ft | 138 kts | 46° |
| 2026-04-21 13:37 | 10.24957 | 123.92107 | 1396 ft | 138 kts | 46° |
| 2026-04-21 13:37 | 10.25633 | 123.92786 | 1216 ft | 137 kts | 46° |
| 2026-04-21 13:37 | 10.25864 | 123.93018 | 1153 ft | 137 kts | 46° |
| 2026-04-21 13:38 | 10.26765 | 123.93923 | 909 ft | 137 kts | 45° |
| 2026-04-21 13:38 | 10.27450 | 123.94610 | 725 ft | 136 kts | 45° |
| 2026-04-21 13:38 | 10.27669 | 123.94829 | 666 ft | 136 kts | 45° |
| 2026-04-21 13:38 | 10.29005 | 123.96191 | 279 ft | 135 kts | 46° |
| 2026-04-21 13:39 | 10.29684 | 123.96870 | 91 ft | 135 kts | 44° |
| 2026-04-21 13:39 | 10.30323 | 123.97508 | 45 ft | 112 kts | 45° |
| 2026-04-21 13:39 | 10.30756 | 123.97942 | 45 ft | 63 kts | 45° |
| 2026-04-21 13:39 | 10.30968 | 123.98157 | 45 ft | 33 kts | 45° |
| 2026-04-21 13:40 | 10.31137 | 123.98292 | 45 ft | 25 kts | 28° |
| 2026-04-21 13:40 | 10.31255 | 123.98338 | 45 ft | 14 kts | 16° |
| 2026-04-21 13:40 | 10.31348 | 123.98350 | 45 ft | 13 kts | 344° |
| 2026-04-21 13:40 | 10.31420 | 123.98292 | 45 ft | 13 kts | 316° |
| 2026-04-21 13:41 | 10.31484 | 123.98228 | 45 ft | 11 kts | 314° |
| 2026-04-21 13:41 | 10.31527 | 123.98185 | 45 ft | 8 kts | 316° |
| 2026-04-21 13:41 | 10.31567 | 123.98140 | 45 ft | 8 kts | 294° |
| 2026-04-21 13:41 | 10.31543 | 123.98086 | 45 ft | 9 kts | 225° |
| 2026-04-21 13:42 | 10.31494 | 123.98035 | 45 ft | 10 kts | 225° |
| 2026-04-21 13:42 | 10.31446 | 123.97987 | 45 ft | 9 kts | 225° |
| 2026-04-21 13:42 | 10.31400 | 123.97939 | 45 ft | 9 kts | 225° |
| 2026-04-21 13:42 | 10.31362 | 123.97895 | 45 ft | 5 kts | 261° |
| 2026-04-21 13:43 | 10.31379 | 123.97871 | 45 ft | 4 kts | 313° |
| 2026-04-21 13:43 | 10.31397 | 123.97851 | 45 ft | 3 kts | 313° |
| 2026-04-21 13:43 | 10.31408 | 123.97840 | 45 ft | 1 kts | 313° |
| 2026-04-21 13:43 | 10.31408 | 123.97839 | 45 ft | 0 kts | 313° |